createdAt,value
2023-10-06T00:00:01.682Z,97091
2023-10-06T00:02:01.713Z,97095
2023-10-06T00:04:01.717Z,97092
2023-10-06T00:06:01.742Z,97094
2023-10-06T00:08:01.741Z,97103
2023-10-06T00:10:01.714Z,97104
2023-10-06T00:12:01.738Z,97106
2023-10-06T00:14:01.884Z,97103
2023-10-06T00:16:01.786Z,97102
2023-10-06T00:18:01.816Z,97105
2023-10-06T00:20:01.768Z,97105
2023-10-06T00:22:01.791Z,97107
2023-10-06T00:24:01.780Z,97104
2023-10-06T00:26:01.772Z,97101
2023-10-06T00:28:01.752Z,97097
2023-10-06T00:30:01.787Z,97096
2023-10-06T00:32:01.839Z,97086
2023-10-06T00:34:01.774Z,97086
2023-10-06T00:36:01.772Z,97083
2023-10-06T00:38:01.873Z,97085
2023-10-06T00:40:01.772Z,97087
2023-10-06T00:42:01.775Z,97091
2023-10-06T00:44:01.821Z,97092
2023-10-06T00:47:01.889Z,97091
2023-10-06T00:49:01.820Z,97097
2023-10-06T00:52:01.802Z,97090
2023-10-06T00:54:01.810Z,97088
2023-10-06T00:56:02.022Z,97084
2023-10-06T00:58:01.853Z,97081
2023-10-06T01:00:01.794Z,97080
2023-10-06T01:03:01.951Z,97082
2023-10-06T01:05:01.903Z,97078
2023-10-06T01:07:01.886Z,97078
2023-10-06T01:11:01.942Z,97078
2023-10-06T01:13:01.864Z,97076
2023-10-06T01:15:01.885Z,97080
2023-10-06T01:17:02.000Z,97078
2023-10-06T01:19:01.925Z,97078
2023-10-06T01:21:01.873Z,97075
2023-10-06T01:23:01.954Z,97080
2023-10-06T01:27:01.944Z,97078
2023-10-06T01:29:02.043Z,97082
2023-10-06T01:31:01.914Z,97083
2023-10-06T01:33:01.963Z,97081
2023-10-06T01:35:02.050Z,97077
2023-10-06T01:37:01.961Z,97077
2023-10-06T01:39:01.919Z,97075
2023-10-06T01:41:01.952Z,97073
2023-10-06T01:43:01.961Z,97079
2023-10-06T01:45:01.972Z,97076
2023-10-06T01:47:01.999Z,97076
2023-10-06T01:49:01.946Z,97075
2023-10-06T01:51:01.994Z,97075
2023-10-06T01:53:02.015Z,97077
2023-10-06T01:55:01.953Z,97075
2023-10-06T01:57:01.970Z,97078
2023-10-06T01:59:02.015Z,97078
2023-10-06T02:01:02.046Z,97075
2023-10-06T02:03:02.127Z,97075
2023-10-06T02:05:02.052Z,97071
2023-10-06T02:08:02.096Z,97072
2023-10-06T02:12:02.040Z,97074
2023-10-06T02:15:02.005Z,97074
2023-10-06T02:18:02.206Z,97073
2023-10-06T02:20:02.086Z,97073
2023-10-06T02:22:02.082Z,97067
2023-10-06T02:24:02.072Z,97070
2023-10-06T02:26:02.061Z,97073
2023-10-06T02:28:02.028Z,97079
2023-10-06T02:30:02.093Z,97086
2023-10-06T02:32:02.242Z,97091
2023-10-06T02:35:02.187Z,97085
2023-10-06T02:38:02.118Z,97088
2023-10-06T02:40:02.139Z,97092
2023-10-06T02:42:02.070Z,97092
2023-10-06T02:44:02.103Z,97093
2023-10-06T02:46:02.123Z,97093
2023-10-06T02:48:02.136Z,97092
2023-10-06T02:50:02.140Z,97091
2023-10-06T02:54:02.146Z,97089
2023-10-06T02:56:02.198Z,97088
2023-10-06T02:59:02.153Z,97085
2023-10-06T03:02:02.342Z,97084
2023-10-06T03:04:02.170Z,97078
2023-10-06T03:07:02.168Z,97073
2023-10-06T03:09:02.194Z,97070
2023-10-06T03:11:02.190Z,97070
2023-10-06T03:14:02.230Z,97073
2023-10-06T03:16:02.143Z,97070
2023-10-06T03:18:02.190Z,97069
2023-10-06T03:20:02.246Z,97067
2023-10-06T03:22:02.196Z,97063
2023-10-06T03:24:02.221Z,97064
2023-10-06T03:26:02.218Z,97064
2023-10-06T03:28:02.187Z,97062
2023-10-06T03:30:02.245Z,97057
2023-10-06T03:32:02.280Z,97059
2023-10-06T03:34:02.189Z,97058
2023-10-06T03:36:02.230Z,97065
2023-10-06T03:38:02.295Z,97071
2023-10-06T03:40:02.239Z,97074
2023-10-06T03:42:02.261Z,97075
2023-10-06T03:44:02.294Z,97071
2023-10-06T03:46:02.325Z,97068
2023-10-06T03:48:02.330Z,97063
2023-10-06T03:50:02.264Z,97063
2023-10-06T03:54:02.295Z,97054
2023-10-06T03:56:02.345Z,97058
2023-10-06T03:58:02.289Z,97063
2023-10-06T04:00:02.282Z,97068
2023-10-06T04:02:02.410Z,97072
2023-10-06T04:05:02.318Z,97076
2023-10-06T04:08:02.350Z,97071
2023-10-06T04:11:02.309Z,97068
2023-10-06T04:13:02.320Z,97059
2023-10-06T04:15:02.372Z,97054
2023-10-06T04:17:02.421Z,97052
2023-10-06T04:19:02.349Z,97047
2023-10-06T04:22:02.377Z,97054
2023-10-06T04:25:02.388Z,97057
2023-10-06T04:27:02.387Z,97061
2023-10-06T04:30:02.373Z,97055
2023-10-06T04:32:02.430Z,97056
2023-10-06T04:34:02.388Z,97062
2023-10-06T04:37:02.400Z,97057
2023-10-06T04:39:02.360Z,97057
2023-10-06T04:41:02.445Z,97053
2023-10-06T04:43:02.412Z,97049
2023-10-06T04:45:02.428Z,97048
2023-10-06T04:47:02.396Z,97045
2023-10-06T04:49:02.435Z,97043
2023-10-06T04:51:02.420Z,97046
2023-10-06T04:53:02.461Z,97049
2023-10-06T04:55:02.417Z,97050
2023-10-06T04:58:02.434Z,97053
2023-10-06T05:01:02.452Z,97051
2023-10-06T05:03:02.532Z,97054
2023-10-06T05:05:02.483Z,97051
2023-10-06T05:07:02.441Z,97050
2023-10-06T05:12:02.479Z,97061
2023-10-06T05:14:02.557Z,97060
2023-10-06T05:16:02.637Z,97065
2023-10-06T05:19:02.485Z,97070
2023-10-06T05:21:02.500Z,97063
2023-10-06T05:23:02.532Z,97064
2023-10-06T05:25:02.500Z,97060
2023-10-06T05:27:02.676Z,97063
2023-10-06T05:29:02.555Z,97064
2023-10-06T05:31:02.472Z,97063
2023-10-06T05:33:02.586Z,97064
2023-10-06T05:37:02.538Z,97065
2023-10-06T05:40:02.550Z,97060
2023-10-06T05:43:02.553Z,97064
2023-10-06T05:45:02.660Z,97069
2023-10-06T05:47:02.552Z,97066
2023-10-06T05:49:02.540Z,97069
2023-10-06T05:51:02.684Z,97064
2023-10-06T05:53:02.601Z,97064
2023-10-06T05:55:02.551Z,97061
2023-10-06T05:57:02.549Z,97062
2023-10-06T05:59:02.575Z,97062
2023-10-06T06:01:02.672Z,97065
2023-10-06T06:03:02.626Z,97070
2023-10-06T06:05:02.613Z,97071
2023-10-06T06:07:02.584Z,97074
2023-10-06T06:09:02.616Z,97078
2023-10-06T06:11:02.656Z,97080
2023-10-06T06:13:02.590Z,97083
2023-10-06T06:15:02.639Z,97089
2023-10-06T06:17:02.695Z,97092
2023-10-06T06:19:02.700Z,97089
2023-10-06T06:21:02.650Z,97088
2023-10-06T06:23:02.657Z,97089
2023-10-06T06:25:02.635Z,97098
2023-10-06T06:27:02.726Z,97099
2023-10-06T06:29:02.701Z,97099
2023-10-06T06:31:02.640Z,97097
2023-10-06T06:33:02.734Z,97091
2023-10-06T06:35:02.715Z,97091
2023-10-06T06:37:02.687Z,97104
2023-10-06T06:39:02.670Z,97102
2023-10-06T06:41:02.673Z,97102
2023-10-06T06:43:02.750Z,97103
2023-10-06T06:45:03.079Z,97107
2023-10-06T06:47:02.743Z,97109
2023-10-06T06:49:02.713Z,97111
2023-10-06T06:51:02.704Z,97109
2023-10-06T06:53:02.773Z,97101
2023-10-06T06:55:02.745Z,97097
2023-10-06T06:57:02.715Z,97098
2023-10-06T06:59:02.869Z,97098
2023-10-06T07:01:02.764Z,97105
2023-10-06T07:03:02.839Z,97102
2023-10-06T07:05:02.743Z,97104
2023-10-06T07:07:02.769Z,97105
2023-10-06T07:09:02.788Z,97116
2023-10-06T07:11:02.832Z,97117
2023-10-06T07:13:02.858Z,97123
2023-10-06T07:15:02.793Z,97121
2023-10-06T07:17:02.839Z,97124
2023-10-06T07:19:02.836Z,97125
2023-10-06T07:21:02.798Z,97127
2023-10-06T07:23:02.879Z,97132
2023-10-06T07:25:02.767Z,97133
2023-10-06T07:27:03.003Z,97142
2023-10-06T07:29:02.868Z,97139
2023-10-06T07:31:02.826Z,97141
2023-10-06T07:33:02.813Z,97144
2023-10-06T07:35:02.876Z,97144
2023-10-06T07:37:02.846Z,97141
2023-10-06T07:40:02.884Z,97139
2023-10-06T07:42:02.860Z,97136
2023-10-06T07:44:02.864Z,97136
2023-10-06T07:46:02.903Z,97135
2023-10-06T07:48:03.001Z,97133
2023-10-06T07:50:03.054Z,97140
2023-10-06T07:52:02.847Z,97133
2023-10-06T07:54:02.859Z,97133
2023-10-06T07:56:02.905Z,97134
2023-10-06T07:58:03.123Z,97132
2023-10-06T08:00:02.908Z,97134
2023-10-06T08:02:02.911Z,97128
2023-10-06T08:04:02.878Z,97138
2023-10-06T08:06:02.930Z,97139
2023-10-06T08:08:02.962Z,97142
2023-10-06T08:10:02.909Z,97143
2023-10-06T08:12:02.903Z,97143
2023-10-06T08:14:02.993Z,97145
2023-10-06T08:16:02.999Z,97147
2023-10-06T08:18:03.025Z,97152
2023-10-06T08:20:03.007Z,97159
2023-10-06T08:22:03.659Z,97158
2023-10-06T08:24:02.970Z,97155
2023-10-06T08:26:03.289Z,97145
2023-10-06T08:28:02.958Z,97139
2023-10-06T08:30:02.983Z,97139
2023-10-06T08:32:03.000Z,97140
2023-10-06T08:34:03.656Z,97141
2023-10-06T08:36:03.434Z,97144
2023-10-06T08:38:02.973Z,97140
2023-10-06T08:40:03.902Z,97144
2023-10-06T08:42:03.022Z,97141
2023-10-06T08:44:03.043Z,97141
2023-10-06T08:46:03.291Z,97146
2023-10-06T08:48:04.456Z,97144
2023-10-06T08:50:03.119Z,97148
2023-10-06T08:52:03.208Z,97147
2023-10-06T08:54:03.009Z,97146
2023-10-06T08:56:03.070Z,97148
2023-10-06T08:59:03.052Z,97139
2023-10-06T09:01:03.097Z,97134
2023-10-06T09:03:03.114Z,97133
2023-10-06T09:05:03.103Z,97127
2023-10-06T09:07:03.057Z,97127
2023-10-06T09:09:03.064Z,97132
2023-10-06T09:11:03.107Z,97128
2023-10-06T09:13:03.089Z,97122
2023-10-06T09:15:03.080Z,97119
2023-10-06T09:17:03.223Z,97118
2023-10-06T09:19:03.130Z,97121
2023-10-06T09:21:03.126Z,97123
2023-10-06T09:23:03.144Z,97124
2023-10-06T09:25:03.101Z,97118
2023-10-06T09:27:03.221Z,97115
2023-10-06T09:29:03.726Z,97113
2023-10-06T09:31:03.376Z,97111
2023-10-06T09:33:03.213Z,97112
2023-10-06T09:35:03.203Z,97110
2023-10-06T09:37:03.185Z,97105
2023-10-06T09:39:03.172Z,97102
2023-10-06T09:41:03.184Z,97101
2023-10-06T09:43:03.168Z,97098
2023-10-06T09:45:03.202Z,97095
2023-10-06T09:47:03.246Z,97093
2023-10-06T09:49:03.179Z,97094
2023-10-06T09:51:03.187Z,97092
2023-10-06T09:53:03.243Z,97089
2023-10-06T09:55:03.232Z,97090
2023-10-06T09:57:03.190Z,97088
2023-10-06T09:59:03.233Z,97087
2023-10-06T10:01:03.331Z,97087
2023-10-06T10:03:03.319Z,97084
2023-10-06T10:05:03.298Z,97084
2023-10-06T10:07:03.555Z,97084
2023-10-06T10:09:03.260Z,97083
2023-10-06T10:11:03.357Z,97076
2023-10-06T10:13:03.286Z,97077
2023-10-06T10:15:03.238Z,97074
2023-10-06T10:17:03.331Z,97073
2023-10-06T10:19:03.292Z,97073
2023-10-06T10:21:03.291Z,97069
2023-10-06T10:23:03.294Z,97069
2023-10-06T10:25:20.962Z,97069
2023-10-06T10:27:03.279Z,97068
2023-10-06T10:29:03.425Z,97066
2023-10-06T10:31:03.293Z,97064
2023-10-06T10:34:18.758Z,97071
2023-10-06T10:36:03.288Z,97067
2023-10-06T10:38:05.695Z,97062
2023-10-06T10:40:03.343Z,97059
2023-10-06T10:42:03.341Z,97061
2023-10-06T10:44:14.652Z,97060
2023-10-06T10:46:03.311Z,97059
2023-10-06T10:48:03.359Z,97057
2023-10-06T10:51:03.336Z,97053
2023-10-06T10:53:03.367Z,97055
2023-10-06T10:55:03.386Z,97053
2023-10-06T10:57:03.637Z,97053
2023-10-06T10:59:03.342Z,97050
2023-10-06T11:01:03.400Z,97050
2023-10-06T11:03:03.453Z,97054
2023-10-06T11:05:03.445Z,97049
2023-10-06T11:07:03.520Z,97049
2023-10-06T11:09:03.362Z,97050
2023-10-06T11:11:03.450Z,97049
2023-10-06T11:13:03.449Z,97041
2023-10-06T11:15:03.427Z,97042
2023-10-06T11:17:03.421Z,97039
2023-10-06T11:19:03.398Z,97041
2023-10-06T11:21:03.456Z,97037
2023-10-06T11:23:03.496Z,97032
2023-10-06T11:25:03.430Z,97033
2023-10-06T11:27:03.414Z,97027
2023-10-06T11:29:03.498Z,97025
2023-10-06T11:31:03.489Z,97020
2023-10-06T11:33:03.592Z,97019
2023-10-06T11:35:03.467Z,97015
2023-10-06T11:37:03.445Z,97013
2023-10-06T11:39:03.501Z,97005
2023-10-06T11:41:03.555Z,97005
2023-10-06T11:44:04.716Z,97003
2023-10-06T11:46:03.845Z,97001
2023-10-06T11:48:03.708Z,96997
2023-10-06T11:50:03.526Z,96996
2023-10-06T11:52:03.544Z,96991
2023-10-06T11:54:03.548Z,96990
2023-10-06T11:56:03.624Z,96993
2023-10-06T11:58:03.510Z,96983
2023-10-06T12:00:03.569Z,96979
2023-10-06T12:02:04.394Z,96976
2023-10-06T12:04:03.641Z,96981
2023-10-06T12:07:03.577Z,96979
2023-10-06T12:09:03.533Z,96978
2023-10-06T12:11:03.586Z,96974
2023-10-06T12:13:03.581Z,96974
2023-10-06T12:15:03.593Z,96979
2023-10-06T12:17:03.672Z,96974
2023-10-06T12:19:03.563Z,96975
2023-10-06T12:21:03.602Z,96969
2023-10-06T12:23:03.647Z,96968
2023-10-06T12:25:03.622Z,96968
2023-10-06T12:27:03.586Z,96965
2023-10-06T12:29:03.614Z,96964
2023-10-06T12:31:03.666Z,96962
2023-10-06T12:34:03.674Z,96959
2023-10-06T12:36:03.656Z,96959
2023-10-06T12:38:04.585Z,96958
2023-10-06T12:40:03.612Z,96955
2023-10-06T12:42:03.612Z,96953
2023-10-06T12:44:04.125Z,96947
2023-10-06T12:46:03.692Z,96946
2023-10-06T12:48:03.705Z,96945
2023-10-06T12:50:03.691Z,96944
2023-10-06T12:52:03.689Z,96941
2023-10-06T12:54:03.708Z,96941
2023-10-06T12:56:03.703Z,96940
2023-10-06T12:58:03.659Z,96936
2023-10-06T13:00:04.714Z,96933
2023-10-06T13:02:03.746Z,96929
2023-10-06T13:04:03.867Z,96928
2023-10-06T13:06:04.390Z,96926
2023-10-06T13:08:03.761Z,96924
2023-10-06T13:10:04.004Z,96924
2023-10-06T13:12:04.097Z,96923
2023-10-06T13:14:03.776Z,96922
2023-10-06T13:16:03.703Z,96921
2023-10-06T13:18:03.861Z,96920
2023-10-06T13:20:03.857Z,96922
2023-10-06T13:22:03.725Z,96917
2023-10-06T13:24:05.747Z,96917
2023-10-06T13:26:03.815Z,96912
2023-10-06T13:28:03.790Z,96912
2023-10-06T13:30:04.861Z,96915
2023-10-06T13:32:03.807Z,96913
2023-10-06T13:34:04.102Z,96912
2023-10-06T13:36:06.254Z,96914
2023-10-06T13:39:03.806Z,96911
2023-10-06T13:41:03.887Z,96906
2023-10-06T13:43:03.831Z,96907
2023-10-06T13:45:03.779Z,96909
2023-10-06T13:48:05.525Z,96907
2023-10-06T13:50:03.865Z,96907
2023-10-06T13:52:03.852Z,96901
2023-10-06T13:54:04.987Z,96900
2023-10-06T13:56:04.001Z,96898
2023-10-06T13:58:03.825Z,96897
2023-10-06T14:00:05.157Z,96897
2023-10-06T14:02:03.942Z,96895
2023-10-06T14:05:03.904Z,96892
2023-10-06T14:07:03.874Z,96895
2023-10-06T14:11:03.880Z,96893
2023-10-06T14:13:03.944Z,96892
2023-10-06T14:15:03.898Z,96895
2023-10-06T14:18:04.017Z,96892
2023-10-06T14:20:03.931Z,96893
2023-10-06T14:22:03.937Z,96894
2023-10-06T14:24:04.754Z,96891
2023-10-06T14:26:03.946Z,96891
2023-10-06T14:28:03.944Z,96893
2023-10-06T14:30:05.315Z,96889
2023-10-06T14:32:03.950Z,96894
2023-10-06T14:34:03.928Z,96898
2023-10-06T14:37:03.920Z,96890
2023-10-06T14:39:03.985Z,96897
2023-10-06T14:41:03.972Z,96896
2023-10-06T14:43:03.970Z,96895
2023-10-06T14:45:03.985Z,96894
2023-10-06T14:48:05.780Z,96896
2023-10-06T14:50:03.966Z,96894
2023-10-06T14:52:04.000Z,96893
2023-10-06T14:54:04.010Z,96890
2023-10-06T14:57:04.015Z,96891
2023-10-06T15:02:04.055Z,96890
2023-10-06T15:04:05.928Z,96891
2023-10-06T15:06:03.997Z,96894
2023-10-06T15:08:04.044Z,96893
2023-10-06T15:10:04.046Z,96895
2023-10-06T15:13:04.005Z,96890
2023-10-06T15:15:04.069Z,96892
2023-10-06T15:17:04.095Z,96891
2023-10-06T15:20:04.087Z,96888
2023-10-06T15:22:04.135Z,96890
2023-10-06T15:24:04.073Z,96892
2023-10-06T15:28:04.081Z,96889
2023-10-06T15:30:04.104Z,96889
2023-10-06T15:32:06.255Z,96887
2023-10-06T15:34:04.087Z,96885
2023-10-06T15:36:04.098Z,96886
2023-10-06T15:38:05.191Z,96890
2023-10-06T15:40:04.094Z,96891
2023-10-06T15:42:04.102Z,96890
2023-10-06T15:44:05.167Z,96886
2023-10-06T15:46:04.238Z,96887
2023-10-06T15:48:04.145Z,96885
2023-10-06T15:50:15.569Z,96886
2023-10-06T15:52:04.141Z,96882
2023-10-06T15:54:04.160Z,96884
2023-10-06T15:56:04.185Z,96889
2023-10-06T15:58:04.128Z,96887
2023-10-06T16:00:05.257Z,96889
2023-10-06T16:02:04.239Z,96892
2023-10-06T16:04:04.225Z,96895
2023-10-06T16:06:04.156Z,96895
2023-10-06T16:08:04.201Z,96896
2023-10-06T16:10:04.202Z,96894
2023-10-06T16:12:04.201Z,96895
2023-10-06T16:14:04.230Z,96895
2023-10-06T16:16:11.434Z,96896
2023-10-06T16:18:04.239Z,96894
2023-10-06T16:20:04.305Z,96899
2023-10-06T16:22:04.235Z,96900
2023-10-06T16:24:04.199Z,96902
2023-10-06T16:26:04.230Z,96899
2023-10-06T16:28:05.121Z,96900
2023-10-06T16:30:04.288Z,96902
2023-10-06T16:32:04.360Z,96901
2023-10-06T16:34:04.236Z,96898
2023-10-06T16:36:04.288Z,96898
2023-10-06T16:38:04.315Z,96896
2023-10-06T16:40:04.290Z,96899
2023-10-06T16:42:04.248Z,96897
2023-10-06T16:44:04.293Z,96894
2023-10-06T16:46:04.359Z,96901
2023-10-06T16:48:04.350Z,96904
2023-10-06T16:50:04.322Z,96901
2023-10-06T16:52:04.283Z,96904
2023-10-06T16:54:04.328Z,96907
2023-10-06T16:56:04.333Z,96910
2023-10-06T16:58:04.312Z,96909
2023-10-06T17:00:04.320Z,96912
2023-10-06T17:02:04.364Z,96914
2023-10-06T17:04:04.518Z,96917
2023-10-06T17:06:04.360Z,96916
2023-10-06T17:08:04.343Z,96920
2023-10-06T17:10:04.318Z,96919
2023-10-06T17:12:04.368Z,96922
2023-10-06T17:14:04.772Z,96926
2023-10-06T17:17:04.404Z,96935
2023-10-06T17:19:04.383Z,96937
2023-10-06T17:21:04.349Z,96938
2023-10-06T17:23:04.406Z,96943
2023-10-06T17:25:04.401Z,96946
2023-10-06T17:28:04.409Z,96945
2023-10-06T17:30:04.398Z,96946
2023-10-06T17:33:04.499Z,96949
2023-10-06T17:35:04.441Z,96944
2023-10-06T17:37:27.392Z,96945
2023-10-06T17:39:04.413Z,96945
2023-10-06T17:41:04.470Z,96946
2023-10-06T17:44:04.462Z,96952
2023-10-06T17:47:04.436Z,96955
2023-10-06T17:49:04.580Z,96955
2023-10-06T17:51:04.464Z,96951
2023-10-06T17:53:04.475Z,96954
2023-10-06T17:56:04.485Z,96960
2023-10-06T17:58:04.462Z,96960
2023-10-06T18:00:04.440Z,96964
2023-10-06T18:02:04.621Z,96962
2023-10-06T18:04:04.628Z,96963
2023-10-06T18:06:04.500Z,96965
2023-10-06T18:08:04.468Z,96967
2023-10-06T18:10:04.486Z,96968
2023-10-06T18:12:24.056Z,96966
2023-10-06T18:14:04.535Z,96963
2023-10-06T18:16:04.506Z,96969
2023-10-06T18:18:04.546Z,96973
2023-10-06T18:20:04.571Z,96977
2023-10-06T18:22:04.538Z,96982
2023-10-06T18:24:04.503Z,96978
2023-10-06T18:26:04.527Z,96984
2023-10-06T18:28:04.567Z,96983
2023-10-06T18:30:04.578Z,96984
2023-10-06T18:32:04.677Z,96986
2023-10-06T18:34:04.533Z,96984
2023-10-06T18:37:04.532Z,96983
2023-10-06T18:39:04.551Z,96987
2023-10-06T18:41:04.627Z,96988
2023-10-06T18:43:04.601Z,96992
2023-10-06T18:45:04.610Z,96992
2023-10-06T18:47:04.642Z,96994
2023-10-06T18:49:04.574Z,96995
2023-10-06T18:52:04.574Z,96997
2023-10-06T18:54:04.635Z,97002
2023-10-06T18:56:04.731Z,97001
2023-10-06T18:58:04.656Z,97000
2023-10-06T19:00:04.616Z,96998
2023-10-06T19:02:04.821Z,96998
2023-10-06T19:04:04.737Z,96998
2023-10-06T19:06:04.670Z,97003
2023-10-06T19:08:04.698Z,97000
2023-10-06T19:10:04.644Z,97001
2023-10-06T19:12:05.112Z,96999
2023-10-06T19:14:04.688Z,96999
2023-10-06T19:16:04.669Z,96999
2023-10-06T19:18:04.706Z,97005
2023-10-06T19:20:04.694Z,97005
2023-10-06T19:22:04.713Z,97007
2023-10-06T19:24:04.698Z,97005
2023-10-06T19:26:04.690Z,97006
2023-10-06T19:28:04.688Z,97009
2023-10-06T19:30:04.724Z,97010
2023-10-06T19:33:04.788Z,97015
2023-10-06T19:35:04.731Z,97013
2023-10-06T19:37:04.745Z,97014
2023-10-06T19:40:04.736Z,97019
2023-10-06T19:43:04.801Z,97019
2023-10-06T19:45:04.745Z,97020
2023-10-06T19:48:04.835Z,97022
2023-10-06T19:50:04.785Z,97020
2023-10-06T19:52:04.745Z,97021
2023-10-06T19:54:04.742Z,97018
2023-10-06T19:56:04.831Z,97019
2023-10-06T19:58:04.802Z,97021
2023-10-06T20:00:04.770Z,97019
2023-10-06T20:02:04.819Z,97021
2023-10-06T20:04:04.862Z,97022
2023-10-06T20:06:04.815Z,97018
2023-10-06T20:08:04.787Z,97016
2023-10-06T20:10:04.811Z,97017
2023-10-06T20:12:04.840Z,97020
2023-10-06T20:14:04.841Z,97020
2023-10-06T20:16:04.824Z,97022
2023-10-06T20:19:04.858Z,97023
2023-10-06T20:21:04.818Z,97021
2023-10-06T20:23:04.798Z,97019
2023-10-06T20:25:04.907Z,97018
2023-10-06T20:27:04.877Z,97024
2023-10-06T20:29:04.940Z,97017
2023-10-06T20:31:04.946Z,97021
2023-10-06T20:34:04.857Z,97020
2023-10-06T20:37:04.907Z,97022
2023-10-06T20:40:04.881Z,97026
2023-10-06T20:43:04.901Z,97029
2023-10-06T20:46:04.983Z,97033
2023-10-06T20:48:05.034Z,97029
2023-10-06T20:50:04.926Z,97033
2023-10-06T20:53:04.932Z,97031
2023-10-06T20:55:04.950Z,97028
2023-10-06T20:58:04.969Z,97037
2023-10-06T21:00:04.937Z,97037
2023-10-06T21:02:04.954Z,97037
2023-10-06T21:06:05.030Z,97037
2023-10-06T21:08:04.978Z,97041
2023-10-06T21:10:04.933Z,97043
2023-10-06T21:12:04.972Z,97044
2023-10-06T21:14:05.037Z,97042
2023-10-06T21:16:04.998Z,97043
2023-10-06T21:18:04.992Z,97045
2023-10-06T21:20:04.963Z,97051
2023-10-06T21:22:05.095Z,97050
2023-10-06T21:24:05.021Z,97053
2023-10-06T21:26:04.991Z,97054
2023-10-06T21:28:04.970Z,97054
2023-10-06T21:30:05.046Z,97049
2023-10-06T21:32:05.076Z,97050
2023-10-06T21:34:05.032Z,97051
2023-10-06T21:37:05.068Z,97052
2023-10-06T21:39:05.018Z,97051
2023-10-06T21:41:05.048Z,97057
2023-10-06T21:43:05.096Z,97058
2023-10-06T21:45:05.086Z,97059
2023-10-06T21:48:05.092Z,97057
2023-10-06T21:50:05.120Z,97058
2023-10-06T21:52:05.049Z,97058
2023-10-06T21:55:05.099Z,97060
2023-10-06T21:58:05.121Z,97057
2023-10-06T22:00:05.074Z,97054
2023-10-06T22:02:05.100Z,97058
2023-10-06T22:04:05.278Z,97054
2023-10-06T22:06:05.100Z,97054
2023-10-06T22:08:05.149Z,97052
2023-10-06T22:10:05.095Z,97051
2023-10-06T22:12:05.088Z,97047
2023-10-06T22:14:05.210Z,97048
2023-10-06T22:16:05.178Z,97048
2023-10-06T22:18:05.191Z,97046
2023-10-06T22:20:05.128Z,97046
2023-10-06T22:22:05.164Z,97050
2023-10-06T22:24:05.180Z,97046
2023-10-06T22:26:05.187Z,97043
2023-10-06T22:28:05.143Z,97043
2023-10-06T22:30:05.176Z,97039
2023-10-06T22:32:05.413Z,97037
2023-10-06T22:34:05.208Z,97036
2023-10-06T22:36:05.168Z,97039
2023-10-06T22:38:05.159Z,97036
2023-10-06T22:40:05.192Z,97036
2023-10-06T22:42:05.248Z,97039
2023-10-06T22:44:05.194Z,97035
2023-10-06T22:46:05.279Z,97038
2023-10-06T22:48:05.322Z,97041
2023-10-06T22:50:05.266Z,97044
2023-10-06T22:55:05.292Z,97038
2023-10-06T22:57:05.195Z,97035
2023-10-06T22:59:05.265Z,97037
2023-10-06T23:01:05.385Z,97032
2023-10-06T23:03:05.330Z,97030
2023-10-06T23:05:05.275Z,97031
2023-10-06T23:07:05.242Z,97025
2023-10-06T23:09:05.297Z,97028
2023-10-06T23:11:05.314Z,97036
2023-10-06T23:13:05.323Z,97040
2023-10-06T23:15:05.259Z,97039
2023-10-06T23:17:05.340Z,97037
2023-10-06T23:19:05.344Z,97032
2023-10-06T23:21:05.301Z,97027
2023-10-06T23:23:05.366Z,97029
2023-10-06T23:25:05.269Z,97028
2023-10-06T23:27:05.321Z,97026
2023-10-06T23:30:05.268Z,97027
2023-10-06T23:32:05.416Z,97028
2023-10-06T23:34:05.354Z,97027
2023-10-06T23:36:05.334Z,97025
2023-10-06T23:39:05.344Z,97023
2023-10-06T23:41:05.382Z,97024
2023-10-06T23:43:05.318Z,97023
2023-10-06T23:45:05.343Z,97027
2023-10-06T23:47:06.261Z,97030
2023-10-06T23:49:05.371Z,97033
2023-10-06T23:51:05.334Z,97028
2023-10-06T23:53:05.433Z,97030
2023-10-06T23:56:05.399Z,97032
2023-10-06T23:59:05.435Z,97030
